Terminal Aerodrome Forecast
Issued by NWS Cleveland, OH

Home | Current Version | Previous Version | Graphics & Text | Print | Product List | Glossary Off
Versions: 1 2 3 4 5 6 7 8 9 10 11 12 13 14 15 16 17 18 19 20

645
FTUS41 KCLE 301821 AAA
TAFCAK
TAF AMD
KCAK 301821Z 3018/0118 11010KT 6SM -RA OVC012
      TEMPO 3018/3021 2SM TSRA BR OVC008CB
     FM302100 11010KT P6SM VCSH SCT012 OVC035
     FM010300 11008KT P6SM SCT035 OVC060
     FM010900 13006KT 3SM BR BKN007
     FM011500 16007KT P6SM BKN012 BKN025=

USA.gov is the U.S. government's official web portal to all federal, state and local government web resources and services.